Straseni, Moldova
Current Conditions -  °F | °C
As of 7:00 PM on Wednesday 28 Jan 2015 (Local Time) from LUKK Reporting Station
Haze Haze  
Wind Chill: 32°   Ceiling: 2200
Heat Index: 36°   Visibility: 3mi
Dew Point: 30°   Wind: 5mph
Humidity: 81%   Direction: 350°N
Pressure: 29.91"   Gusts: NA
Location:  47.15°N, 28.61°E
Report Text: LUKK 281600Z 35004KT 320V030 5000 BR BKN022 BKN03802/M01 Q1013 R08/150060 NOSIG
Loading
Personal Weather Stations






























Interactive Weather Map New forecast layout! Learn more

10-Day Weather Forecast

Advertisements
Track Severe Weather on mobile